sensor_id;sensor_type;location;lat;lon;timestamp;pressure;altitude;pressure_sealevel;temperature;humidity
66857;BME280;53766;50.280;19.160;2022-12-17T00:00:46;98251.31;;;15.91;39.75
66857;BME280;53766;50.280;19.160;2022-12-17T00:03:32;98259.28;;;15.91;39.90
66857;BME280;53766;50.280;19.160;2022-12-17T00:06:19;98253.34;;;15.89;39.79
66857;BME280;53766;50.280;19.160;2022-12-17T00:09:05;98247.22;;;15.89;39.77
66857;BME280;53766;50.280;19.160;2022-12-17T00:11:51;98236.59;;;15.89;39.85
66857;BME280;53766;50.280;19.160;2022-12-17T00:14:37;98254.38;;;15.88;39.80
66857;BME280;53766;50.280;19.160;2022-12-17T00:17:23;98260.69;;;15.87;39.85
66857;BME280;53766;50.280;19.160;2022-12-17T00:20:10;98269.28;;;15.89;39.57
66857;BME280;53766;50.280;19.160;2022-12-17T00:23:02;98273.31;;;15.85;39.64
66857;BME280;53766;50.280;19.160;2022-12-17T00:25:49;98278.28;;;15.88;39.54
66857;BME280;53766;50.280;19.160;2022-12-17T00:28:36;98281.28;;;15.85;39.67
66857;BME280;53766;50.280;19.160;2022-12-17T00:31:23;98287.63;;;15.84;39.74
66857;BME280;53766;50.280;19.160;2022-12-17T00:34:11;98286.81;;;15.83;39.68
66857;BME280;53766;50.280;19.160;2022-12-17T00:36:57;98287.00;;;15.82;39.72
66857;BME280;53766;50.280;19.160;2022-12-17T00:39:44;98293.34;;;15.81;39.61
66857;BME280;53766;50.280;19.160;2022-12-17T00:42:30;98285.56;;;15.79;39.68
66857;BME280;53766;50.280;19.160;2022-12-17T00:45:16;98283.53;;;15.81;39.72
66857;BME280;53766;50.280;19.160;2022-12-17T00:48:02;98285.56;;;15.79;39.56
66857;BME280;53766;50.280;19.160;2022-12-17T00:50:48;98302.69;;;15.77;39.69
66857;BME280;53766;50.280;19.160;2022-12-17T00:53:34;98306.97;;;15.78;39.50
66857;BME280;53766;50.280;19.160;2022-12-17T00:56:21;98301.66;;;15.78;39.63
66857;BME280;53766;50.280;19.160;2022-12-17T00:59:06;98315.97;;;15.77;39.70
66857;BME280;53766;50.280;19.160;2022-12-17T01:01:53;98310.03;;;15.75;39.44
66857;BME280;53766;50.280;19.160;2022-12-17T01:04:39;98310.03;;;15.75;39.68
66857;BME280;53766;50.280;19.160;2022-12-17T01:07:25;98304.72;;;15.75;39.48
66857;BME280;53766;50.280;19.160;2022-12-17T01:10:11;98297.75;;;15.74;39.72
66857;BME280;53766;50.280;19.160;2022-12-17T01:12:58;98310.03;;;15.75;39.61
66857;BME280;53766;50.280;19.160;2022-12-17T01:15:43;98308.38;;;15.74;39.66
66857;BME280;53766;50.280;19.160;2022-12-17T01:18:30;98310.38;;;15.72;39.46
66857;BME280;53766;50.280;19.160;2022-12-17T01:21:16;98311.38;;;15.71;39.41
66857;BME280;53766;50.280;19.160;2022-12-17T01:24:03;98317.34;;;15.73;39.37
66857;BME280;53766;50.280;19.160;2022-12-17T01:26:49;98325.66;;;15.70;39.58
66857;BME280;53766;50.280;19.160;2022-12-17T01:29:36;98332.00;;;15.69;39.36
66857;BME280;53766;50.280;19.160;2022-12-17T01:32:22;98335.47;;;15.69;39.44
66857;BME280;53766;50.280;19.160;2022-12-17T01:35:08;98323.00;;;15.70;39.49
66857;BME280;53766;50.280;19.160;2022-12-17T01:37:53;98338.13;;;15.69;39.61
66857;BME280;53766;50.280;19.160;2022-12-17T01:40:39;98340.94;;;15.68;39.62
66857;BME280;53766;50.280;19.160;2022-12-17T01:43:34;98348.91;;;15.68;39.55
66857;BME280;53766;50.280;19.160;2022-12-17T01:46:20;98354.03;;;15.69;39.46
66857;BME280;53766;50.280;19.160;2022-12-17T01:49:08;98342.44;;;15.70;39.36
66857;BME280;53766;50.280;19.160;2022-12-17T01:51:57;98326.31;;;15.72;39.37
66857;BME280;53766;50.280;19.160;2022-12-17T01:54:44;98333.28;;;15.73;39.61
66857;BME280;53766;50.280;19.160;2022-12-17T01:57:31;98338.59;;;15.73;39.54
66857;BME280;53766;50.280;19.160;2022-12-17T02:00:18;98341.06;;;15.74;39.76
66857;BME280;53766;50.280;19.160;2022-12-17T02:03:11;98331.63;;;15.72;39.49
66857;BME280;53766;50.280;19.160;2022-12-17T02:06:24;98330.63;;;15.73;39.84
66857;BME280;53766;50.280;19.160;2022-12-17T02:18:07;98321.00;;;15.72;39.58
66857;BME280;53766;50.280;19.160;2022-12-17T02:20:56;98309.41;;;15.73;39.73
66857;BME280;53766;50.280;19.160;2022-12-17T02:24:13;98302.41;;;15.72;39.70
66857;BME280;53766;50.280;19.160;2022-12-17T02:27:05;98308.72;;;15.71;39.83
66857;BME280;53766;50.280;19.160;2022-12-17T02:30:02;98309.72;;;15.70;39.66
66857;BME280;53766;50.280;19.160;2022-12-17T02:32:49;98291.13;;;15.70;39.80
66857;BME280;53766;50.280;19.160;2022-12-17T02:35:43;98282.19;;;15.71;39.68
66857;BME280;53766;50.280;19.160;2022-12-17T02:38:31;98286.69;;;15.70;39.73
66857;BME280;53766;50.280;19.160;2022-12-17T02:41:28;98274.41;;;15.69;39.67
66857;BME280;53766;50.280;19.160;2022-12-17T02:44:17;98264.59;;;15.70;39.66
66857;BME280;53766;50.280;19.160;2022-12-17T02:47:06;98263.78;;;15.69;39.72
66857;BME280;53766;50.280;19.160;2022-12-17T02:49:54;98270.91;;;15.69;39.86
66857;BME280;53766;50.280;19.160;2022-12-17T02:52:44;98297.47;;;15.69;39.49
66857;BME280;53766;50.280;19.160;2022-12-17T02:55:31;98313.22;;;15.70;39.71
66857;BME280;53766;50.280;19.160;2022-12-17T02:58:17;98335.28;;;15.71;39.92
66857;BME280;53766;50.280;19.160;2022-12-17T03:01:04;98363.84;;;15.69;39.98
66857;BME280;53766;50.280;19.160;2022-12-17T03:03:50;98382.59;;;15.67;39.73
66857;BME280;53766;50.280;19.160;2022-12-17T03:06:36;98402.00;;;15.68;39.74
66857;BME280;53766;50.280;19.160;2022-12-17T03:09:22;98400.38;;;15.67;39.88
66857;BME280;53766;50.280;19.160;2022-12-17T03:12:08;98398.38;;;15.69;39.69
66857;BME280;53766;50.280;19.160;2022-12-17T03:14:54;98417.13;;;15.67;39.88
66857;BME280;53766;50.280;19.160;2022-12-17T03:17:40;98426.13;;;15.66;39.68
66857;BME280;53766;50.280;19.160;2022-12-17T03:20:26;98436.53;;;15.68;39.94
66857;BME280;53766;50.280;19.160;2022-12-17T03:23:33;98431.59;;;15.64;39.83
66857;BME280;53766;50.280;19.160;2022-12-17T03:26:19;98439.19;;;15.68;40.01
66857;BME280;53766;50.280;19.160;2022-12-17T03:29:06;98454.47;;;15.66;40.04
66857;BME280;53766;50.280;19.160;2022-12-17T03:31:52;98449.16;;;15.66;40.03
66857;BME280;53766;50.280;19.160;2022-12-17T03:34:38;98453.47;;;15.67;39.88
66857;BME280;53766;50.280;19.160;2022-12-17T03:37:24;98447.53;;;15.64;39.78
66857;BME280;53766;50.280;19.160;2022-12-17T03:40:10;98454.47;;;15.66;39.95
66857;BME280;53766;50.280;19.160;2022-12-17T03:42:55;98451.22;;;15.63;39.81
66857;BME280;53766;50.280;19.160;2022-12-17T03:45:42;98445.91;;;15.63;40.04
66857;BME280;53766;50.280;19.160;2022-12-17T03:48:36;98439.56;;;15.64;39.82
66857;BME280;53766;50.280;19.160;2022-12-17T03:51:22;98435.28;;;15.63;40.03
66857;BME280;53766;50.280;19.160;2022-12-17T03:54:08;98424.66;;;15.63;39.77
66857;BME280;53766;50.280;19.160;2022-12-17T03:56:55;98420.16;;;15.64;39.98
66857;BME280;53766;50.280;19.160;2022-12-17T03:59:42;98415.03;;;15.62;39.80
66857;BME280;53766;50.280;19.160;2022-12-17T04:02:29;98412.38;;;15.62;39.89
66857;BME280;53766;50.280;19.160;2022-12-17T04:05:15;98404.59;;;15.61;39.75
66857;BME280;53766;50.280;19.160;2022-12-17T04:08:01;98405.22;;;15.63;40.04
66857;BME280;53766;50.280;19.160;2022-12-17T04:10:47;98394.81;;;15.61;39.82
66857;BME280;53766;50.280;19.160;2022-12-17T04:13:34;98392.97;;;15.62;39.78
66857;BME280;53766;50.280;19.160;2022-12-17T04:16:20;98388.88;;;15.59;39.80
66857;BME280;53766;50.280;19.160;2022-12-17T04:19:06;98388.88;;;15.59;39.97
66857;BME280;53766;50.280;19.160;2022-12-17T04:21:53;98384.56;;;15.58;39.91
66857;BME280;53766;50.280;19.160;2022-12-17T04:24:39;98387.22;;;15.58;39.88
66857;BME280;53766;50.280;19.160;2022-12-17T04:27:25;98385.38;;;15.59;39.84
66857;BME280;53766;50.280;19.160;2022-12-17T04:30:12;98389.06;;;15.58;39.93
66857;BME280;53766;50.280;19.160;2022-12-17T04:32:58;98396.00;;;15.59;39.85
66857;BME280;53766;50.280;19.160;2022-12-17T04:35:44;98411.09;;;15.58;39.93
66857;BME280;53766;50.280;19.160;2022-12-17T04:38:30;98415.78;;;15.56;40.05
66857;BME280;53766;50.280;19.160;2022-12-17T04:41:17;98418.44;;;15.56;40.07
66857;BME280;53766;50.280;19.160;2022-12-17T04:44:03;98427.41;;;15.55;40.06
66857;BME280;53766;50.280;19.160;2022-12-17T04:47:03;98423.75;;;15.56;39.96
66857;BME280;53766;50.280;19.160;2022-12-17T04:49:49;98430.72;;;15.57;39.80
66857;BME280;53766;50.280;19.160;2022-12-17T04:52:35;98444.16;;;15.56;40.13
66857;BME280;53766;50.280;19.160;2022-12-17T04:55:22;98436.00;;;15.57;39.99
66857;BME280;53766;50.280;19.160;2022-12-17T04:58:08;98456.63;;;15.55;39.85
66857;BME280;53766;50.280;19.160;2022-12-17T05:01:14;98465.56;;;15.54;40.02
66857;BME280;53766;50.280;19.160;2022-12-17T05:04:00;98468.22;;;15.54;39.97
66857;BME280;53766;50.280;19.160;2022-12-17T05:06:46;98472.72;;;15.54;40.02
66857;BME280;53766;50.280;19.160;2022-12-17T05:09:33;98474.72;;;15.52;39.97
66857;BME280;53766;50.280;19.160;2022-12-17T05:12:19;98468.22;;;15.54;40.15
66857;BME280;53766;50.280;19.160;2022-12-17T05:15:06;98473.53;;;15.54;40.06
66857;BME280;53766;50.280;19.160;2022-12-17T05:17:52;98477.38;;;15.52;39.96
66857;BME280;53766;50.280;19.160;2022-12-17T05:20:38;98470.25;;;15.52;39.88
66857;BME280;53766;50.280;19.160;2022-12-17T05:23:24;98473.91;;;15.51;40.11
66857;BME280;53766;50.280;19.160;2022-12-17T05:26:20;98480.03;;;15.52;40.03
66857;BME280;53766;50.280;19.160;2022-12-17T05:29:06;98476.56;;;15.51;40.07
66857;BME280;53766;50.280;19.160;2022-12-17T05:31:52;98481.22;;;15.49;39.95
66857;BME280;53766;50.280;19.160;2022-12-17T05:34:38;98486.53;;;15.49;40.07
66857;BME280;53766;50.280;19.160;2022-12-17T05:37:25;98483.88;;;15.49;40.06
66857;BME280;53766;50.280;19.160;2022-12-17T05:40:11;98491.84;;;15.49;39.87
66857;BME280;53766;50.280;19.160;2022-12-17T05:42:59;98485.53;;;15.50;40.08
66857;BME280;53766;50.280;19.160;2022-12-17T05:45:46;98490.19;;;15.48;39.79
66857;BME280;53766;50.280;19.160;2022-12-17T05:48:33;98500.00;;;15.48;39.70
66857;BME280;53766;50.280;19.160;2022-12-17T05:51:19;98508.78;;;15.48;40.02
66857;BME280;53766;50.280;19.160;2022-12-17T05:54:06;98509.16;;;15.45;39.96
66857;BME280;53766;50.280;19.160;2022-12-17T05:56:53;98502.84;;;15.46;39.91
66857;BME280;53766;50.280;19.160;2022-12-17T05:59:39;98507.31;;;15.46;40.01
66857;BME280;53766;50.280;19.160;2022-12-17T06:02:26;98504.84;;;15.44;40.14
66857;BME280;53766;50.280;19.160;2022-12-17T06:05:13;98501.19;;;15.45;40.13
66857;BME280;53766;50.280;19.160;2022-12-17T06:08:04;98502.00;;;15.46;40.13
66857;BME280;53766;50.280;19.160;2022-12-17T06:10:50;98517.09;;;15.45;40.11
66857;BME280;53766;50.280;19.160;2022-12-17T06:13:36;98523.44;;;15.44;40.24
66857;BME280;53766;50.280;19.160;2022-12-17T06:16:22;98527.09;;;15.43;40.20
66857;BME280;53766;50.280;19.160;2022-12-17T06:19:08;98534.22;;;15.42;39.97
66857;BME280;53766;50.280;19.160;2022-12-17T06:21:55;98555.47;;;15.42;40.05
66857;BME280;53766;50.280;19.160;2022-12-17T06:24:40;98554.66;;;15.42;40.11
66857;BME280;53766;50.280;19.160;2022-12-17T06:27:27;98540.34;;;15.43;40.38
66857;BME280;53766;50.280;19.160;2022-12-17T06:30:13;98554.66;;;15.42;40.09
66857;BME280;53766;50.280;19.160;2022-12-17T06:33:03;98568.91;;;15.41;40.18
66857;BME280;53766;50.280;19.160;2022-12-17T06:35:51;98590.13;;;15.41;40.24
66857;BME280;53766;50.280;19.160;2022-12-17T06:38:44;98599.13;;;15.40;40.45
66857;BME280;53766;50.280;19.160;2022-12-17T06:41:30;98611.19;;;15.42;40.61
66857;BME280;53766;50.280;19.160;2022-12-17T06:44:16;98618.34;;;15.42;40.46
66857;BME280;53766;50.280;19.160;2022-12-17T06:47:01;98611.38;;;15.41;40.09
66857;BME280;53766;50.280;19.160;2022-12-17T06:49:48;98600.91;;;15.39;40.10
66857;BME280;53766;50.280;19.160;2022-12-17T06:52:34;98595.81;;;15.38;40.08
66857;BME280;53766;50.280;19.160;2022-12-17T06:55:20;98598.28;;;15.39;40.32
66857;BME280;53766;50.280;19.160;2022-12-17T06:58:06;98608.06;;;15.39;40.44
66857;BME280;53766;50.280;19.160;2022-12-17T07:00:52;98620.34;;;15.40;40.42
66857;BME280;53766;50.280;19.160;2022-12-17T07:03:38;98622.34;;;15.38;40.56
66857;BME280;53766;50.280;19.160;2022-12-17T07:06:24;98636.63;;;15.37;40.28
66857;BME280;53766;50.280;19.160;2022-12-17T07:09:10;98632.97;;;15.38;40.73
66857;BME280;53766;50.280;19.160;2022-12-17T07:12:16;98638.28;;;15.38;40.42
66857;BME280;53766;50.280;19.160;2022-12-17T07:15:01;98646.88;;;15.40;40.59
66857;BME280;53766;50.280;19.160;2022-12-17T07:17:55;98655.50;;;15.42;40.61
66857;BME280;53766;50.280;19.160;2022-12-17T07:20:41;98655.50;;;15.42;40.25
66857;BME280;53766;50.280;19.160;2022-12-17T07:23:27;98664.75;;;15.46;40.40
66857;BME280;53766;50.280;19.160;2022-12-17T07:26:13;98666.03;;;15.50;40.36
66857;BME280;53766;50.280;19.160;2022-12-17T07:28:59;98676.28;;;15.53;40.33
66857;BME280;53766;50.280;19.160;2022-12-17T07:31:45;98670.44;;;15.58;40.68
66857;BME280;53766;50.280;19.160;2022-12-17T07:34:31;98660.31;;;15.61;40.54
66857;BME280;53766;50.280;19.160;2022-12-17T07:37:17;98668.25;;;15.61;40.43
66857;BME280;53766;50.280;19.160;2022-12-17T07:40:04;98679.81;;;15.69;40.72
66857;BME280;53766;50.280;19.160;2022-12-17T07:42:50;98695.22;;;15.73;40.74
66857;BME280;53766;50.280;19.160;2022-12-17T07:45:36;98702.31;;;15.81;41.04
66857;BME280;53766;50.280;19.160;2022-12-17T07:48:22;98702.75;;;15.84;40.85
66857;BME280;53766;50.280;19.160;2022-12-17T07:51:08;98699.19;;;15.92;40.87
66857;BME280;53766;50.280;19.160;2022-12-17T07:54:08;98696.16;;;15.95;41.03
66857;BME280;53766;50.280;19.160;2022-12-17T07:56:54;98692.78;;;16.01;40.90
66857;BME280;53766;50.280;19.160;2022-12-17T07:59:40;98687.09;;;16.04;40.81
66857;BME280;53766;50.280;19.160;2022-12-17T08:02:27;98708.81;;;16.08;40.83
66857;BME280;53766;50.280;19.160;2022-12-17T08:05:13;98715.81;;;16.09;40.60
66857;BME280;53766;50.280;19.160;2022-12-17T08:08:09;98722.38;;;16.13;40.79
66857;BME280;53766;50.280;19.160;2022-12-17T08:10:56;98736.78;;;16.19;40.96
66857;BME280;53766;50.280;19.160;2022-12-17T08:13:43;98739.44;;;16.19;41.26
66857;BME280;53766;50.280;19.160;2022-12-17T08:16:30;98739.72;;;16.24;41.38
66857;BME280;53766;50.280;19.160;2022-12-17T08:19:16;98750.34;;;16.24;41.55
66857;BME280;53766;50.280;19.160;2022-12-17T08:22:02;98750.97;;;16.26;41.30
66857;BME280;53766;50.280;19.160;2022-12-17T08:24:48;98747.97;;;16.29;41.82
66857;BME280;53766;50.280;19.160;2022-12-17T08:27:34;98744.31;;;16.30;41.88
66857;BME280;53766;50.280;19.160;2022-12-17T08:30:20;98757.03;;;16.35;41.96
66857;BME280;53766;50.280;19.160;2022-12-17T08:33:06;98770.53;;;16.33;42.10
66857;BME280;53766;50.280;19.160;2022-12-17T08:35:53;98764.84;;;16.36;42.10
66857;BME280;53766;50.280;19.160;2022-12-17T08:38:39;98770.81;;;16.38;42.05
66857;BME280;53766;50.280;19.160;2022-12-17T08:41:26;98768.13;;;16.38;42.12
66857;BME280;53766;50.280;19.160;2022-12-17T08:44:20;98767.75;;;16.41;42.29
66857;BME280;53766;50.280;19.160;2022-12-17T08:47:06;98773.06;;;16.41;42.25
66857;BME280;53766;50.280;19.160;2022-12-17T08:49:52;98770.72;;;16.47;42.30
66857;BME280;53766;50.280;19.160;2022-12-17T08:52:39;98776.03;;;16.47;42.36
66857;BME280;53766;50.280;19.160;2022-12-17T08:55:25;98775.00;;;16.48;42.39
66857;BME280;53766;50.280;19.160;2022-12-17T08:58:11;98775.66;;;16.50;42.21
66857;BME280;53766;50.280;19.160;2022-12-17T09:00:58;98781.63;;;16.52;42.25
66857;BME280;53766;50.280;19.160;2022-12-17T09:03:45;98783.47;;;16.51;42.24
66857;BME280;53766;50.280;19.160;2022-12-17T09:06:31;98779.59;;;16.54;42.29
66857;BME280;53766;50.280;19.160;2022-12-17T09:09:18;98786.75;;;16.53;42.45
66857;BME280;53766;50.280;19.160;2022-12-17T09:12:04;98782.72;;;16.57;42.43
66857;BME280;53766;50.280;19.160;2022-12-17T09:14:50;98775.03;;;16.62;42.45
66857;BME280;53766;50.280;19.160;2022-12-17T09:17:36;98764.22;;;16.64;42.28
66857;BME280;53766;50.280;19.160;2022-12-17T09:20:22;98767.50;;;16.66;42.39
66857;BME280;53766;50.280;19.160;2022-12-17T09:23:09;98765.19;;;16.63;42.36
66857;BME280;53766;50.280;19.160;2022-12-17T09:25:56;98778.88;;;16.60;42.48
66857;BME280;53766;50.280;19.160;2022-12-17T09:28:42;98773.38;;;16.61;42.40
66857;BME280;53766;50.280;19.160;2022-12-17T09:31:30;98777.84;;;16.61;42.47
66857;BME280;53766;50.280;19.160;2022-12-17T09:34:17;98775.84;;;16.63;42.40
66857;BME280;53766;50.280;19.160;2022-12-17T09:37:03;98783.38;;;16.59;42.65
66857;BME280;53766;50.280;19.160;2022-12-17T09:39:49;98785.19;;;16.59;42.59
66857;BME280;53766;50.280;19.160;2022-12-17T09:42:57;98777.03;;;16.60;42.69
66857;BME280;53766;50.280;19.160;2022-12-17T09:45:57;98782.34;;;16.60;42.58
66857;BME280;53766;50.280;19.160;2022-12-17T09:49:21;98778.69;;;16.61;42.48
66857;BME280;53766;50.280;19.160;2022-12-17T09:55:13;98787.75;;;16.67;42.57
66857;BME280;53766;50.280;19.160;2022-12-17T09:58:01;98796.75;;;16.66;42.69
66857;BME280;53766;50.280;19.160;2022-12-17T10:00:48;98788.41;;;16.69;42.57
66857;BME280;53766;50.280;19.160;2022-12-17T10:03:34;98800.88;;;16.69;42.52
66857;BME280;53766;50.280;19.160;2022-12-17T10:06:25;98807.00;;;16.69;42.38
66857;BME280;53766;50.280;19.160;2022-12-17T10:09:15;98810.06;;;16.66;42.41
66857;BME280;53766;50.280;19.160;2022-12-17T10:12:14;98807.41;;;16.66;42.29
66857;BME280;53766;50.280;19.160;2022-12-17T10:15:00;98818.03;;;16.66;42.16
66857;BME280;53766;50.280;19.160;2022-12-17T10:17:47;98822.72;;;16.64;42.27
66857;BME280;53766;50.280;19.160;2022-12-17T10:21:00;98816.66;;;16.70;42.31
66857;BME280;53766;50.280;19.160;2022-12-17T10:23:46;98816.03;;;16.68;42.10
66857;BME280;53766;50.280;19.160;2022-12-17T10:26:33;98817.38;;;16.64;41.94
66857;BME280;53766;50.280;19.160;2022-12-17T10:29:24;98821.34;;;16.68;41.91
66857;BME280;53766;50.280;19.160;2022-12-17T10:32:20;98834.97;;;16.65;42.02
66857;BME280;53766;50.280;19.160;2022-12-17T10:38:25;98828.66;;;16.66;41.81
66857;BME280;53766;50.280;19.160;2022-12-17T10:41:24;98830.94;;;16.69;42.00
66857;BME280;53766;50.280;19.160;2022-12-17T10:44:19;98837.94;;;16.70;42.00
66857;BME280;53766;50.280;19.160;2022-12-17T10:47:10;98836.91;;;16.71;41.82
66857;BME280;53766;50.280;19.160;2022-12-17T10:49:58;98838.56;;;16.72;41.79
66857;BME280;53766;50.280;19.160;2022-12-17T10:52:46;98836.91;;;16.71;41.56
66857;BME280;53766;50.280;19.160;2022-12-17T10:55:33;98836.44;;;16.67;41.74
66857;BME280;53766;50.280;19.160;2022-12-17T10:58:21;98827.00;;;16.65;41.73
66857;BME280;53766;50.280;19.160;2022-12-17T11:01:17;98832.50;;;16.63;41.78
66857;BME280;53766;50.280;19.160;2022-12-17T11:04:27;98836.00;;;16.64;41.94
66857;BME280;53766;50.280;19.160;2022-12-17T11:07:30;98837.63;;;16.65;42.00
66857;BME280;53766;50.280;19.160;2022-12-17T11:10:22;98843.97;;;16.64;42.00
66857;BME280;53766;50.280;19.160;2022-12-17T11:13:12;98851.97;;;16.64;42.10
66857;BME280;53766;50.280;19.160;2022-12-17T11:16:01;98856.44;;;16.63;42.40
66857;BME280;53766;50.280;19.160;2022-12-17T11:18:54;98853.59;;;16.65;42.21
66857;BME280;53766;50.280;19.160;2022-12-17T11:21:46;98859.09;;;16.63;42.22
66857;BME280;53766;50.280;19.160;2022-12-17T11:24:41;98857.63;;;16.61;42.19
66857;BME280;53766;50.280;19.160;2022-12-17T11:27:33;98858.28;;;16.63;42.25
66857;BME280;53766;50.280;19.160;2022-12-17T11:30:21;98862.94;;;16.61;42.08
66857;BME280;53766;50.280;19.160;2022-12-17T11:36:17;98868.63;;;16.58;41.98
66857;BME280;53766;50.280;19.160;2022-12-17T11:39:13;98867.81;;;16.57;41.94
66857;BME280;53766;50.280;19.160;2022-12-17T11:42:26;98872.28;;;16.57;41.88
66857;BME280;53766;50.280;19.160;2022-12-17T11:49:12;98884.94;;;16.55;41.72
66857;BME280;53766;50.280;19.160;2022-12-17T11:55:21;98894.31;;;16.51;42.13
66857;BME280;53766;50.280;19.160;2022-12-17T11:58:35;98895.31;;;16.50;42.10
66857;BME280;53766;50.280;19.160;2022-12-17T12:10:23;98904.00;;;16.43;42.97
66857;BME280;53766;50.280;19.160;2022-12-17T12:13:18;98912.81;;;16.44;42.89
66857;BME280;53766;50.280;19.160;2022-12-17T12:16:34;98923.97;;;16.39;43.15
66857;BME280;53766;50.280;19.160;2022-12-17T12:34:28;98947.97;;;16.31;42.86
66857;BME280;53766;50.280;19.160;2022-12-17T12:37:17;98953.28;;;16.31;42.96
66857;BME280;53766;50.280;19.160;2022-12-17T12:40:15;98958.59;;;16.31;43.09
66857;BME280;53766;50.280;19.160;2022-12-17T12:43:28;98951.28;;;16.33;43.07
66857;BME280;53766;50.280;19.160;2022-12-17T12:46:51;98952.91;;;16.34;43.41
66857;BME280;53766;50.280;19.160;2022-12-17T12:49:53;98964.38;;;16.35;43.28
66857;BME280;53766;50.280;19.160;2022-12-17T12:52:42;98960.72;;;16.36;43.40
66857;BME280;53766;50.280;19.160;2022-12-17T12:55:39;98970.88;;;16.32;43.49
66857;BME280;53766;50.280;19.160;2022-12-17T12:58:29;98972.19;;;16.36;43.35
66857;BME280;53766;50.280;19.160;2022-12-17T13:01:15;98978.31;;;16.37;43.27
66857;BME280;53766;50.280;19.160;2022-12-17T13:04:34;98972.19;;;16.36;43.29
66857;BME280;53766;50.280;19.160;2022-12-17T13:07:24;98981.16;;;16.35;43.52
66857;BME280;53766;50.280;19.160;2022-12-17T13:09:55;98986.13;;;16.38;43.32
66857;BME280;53766;50.280;19.160;2022-12-17T13:12:30;98991.44;;;16.38;43.28
66857;BME280;53766;50.280;19.160;2022-12-17T13:17:35;99000.41;;;16.37;43.27
66857;BME280;53766;50.280;19.160;2022-12-17T13:20:24;98996.91;;;16.37;43.57
66857;BME280;53766;50.280;19.160;2022-12-17T13:25:35;99003.91;;;16.38;43.25
66857;BME280;53766;50.280;19.160;2022-12-17T13:28:04;99007.38;;;16.38;43.27
66857;BME280;53766;50.280;19.160;2022-12-17T13:30:34;99005.72;;;16.37;43.21
66857;BME280;53766;50.280;19.160;2022-12-17T13:33:27;99006.72;;;16.36;43.17
66857;BME280;53766;50.280;19.160;2022-12-17T13:39:06;99023.34;;;16.38;43.28
66857;BME280;53766;50.280;19.160;2022-12-17T13:41:36;99028.66;;;16.38;43.38
66857;BME280;53766;50.280;19.160;2022-12-17T13:44:20;99028.66;;;16.38;43.15
66857;BME280;53766;50.280;19.160;2022-12-17T13:46:51;99026.97;;;16.37;43.08
66857;BME280;53766;50.280;19.160;2022-12-17T13:49:21;99030.00;;;16.34;43.33
66857;BME280;53766;50.280;19.160;2022-12-17T13:52:13;99037.16;;;16.34;43.23
66857;BME280;53766;50.280;19.160;2022-12-17T13:54:42;99041.28;;;16.36;43.23
66857;BME280;53766;50.280;19.160;2022-12-17T13:57:23;99045.78;;;16.36;43.33
66857;BME280;53766;50.280;19.160;2022-12-17T13:59:58;99049.25;;;16.36;43.26
66857;BME280;53766;50.280;19.160;2022-12-17T14:02:27;99056.41;;;16.36;43.14
66857;BME280;53766;50.280;19.160;2022-12-17T14:04:57;99057.25;;;16.36;43.14
66857;BME280;53766;50.280;19.160;2022-12-17T14:07:34;99065.06;;;16.38;43.04
66857;BME280;53766;50.280;19.160;2022-12-17T14:10:09;99072.38;;;16.36;43.04
66857;BME280;53766;50.280;19.160;2022-12-17T14:12:41;99073.56;;;16.33;43.08
66857;BME280;53766;50.280;19.160;2022-12-17T14:15:20;99084.53;;;16.30;43.14
66857;BME280;53766;50.280;19.160;2022-12-17T14:17:50;99084.22;;;16.25;42.77
66857;BME280;53766;50.280;19.160;2022-12-17T14:20:21;99090.59;;;16.16;42.41
66857;BME280;53766;50.280;19.160;2022-12-17T14:22:53;99094.59;;;16.12;41.86
66857;BME280;53766;50.280;19.160;2022-12-17T14:25:23;99093.44;;;16.06;41.55
66857;BME280;53766;50.280;19.160;2022-12-17T14:27:57;99092.94;;;16.02;41.29
66857;BME280;53766;50.280;19.160;2022-12-17T14:32:59;99104.44;;;15.95;41.09
66857;BME280;53766;50.280;19.160;2022-12-17T14:35:29;99104.63;;;15.93;40.83
66857;BME280;53766;50.280;19.160;2022-12-17T14:37:58;99111.91;;;15.91;40.76
66857;BME280;53766;50.280;19.160;2022-12-17T14:40:26;99120.91;;;15.90;40.79
66857;BME280;53766;50.280;19.160;2022-12-17T14:42:57;99116.56;;;15.89;40.58
66857;BME280;53766;50.280;19.160;2022-12-17T14:45:27;99121.22;;;15.87;40.69
66857;BME280;53766;50.280;19.160;2022-12-17T14:47:59;99129.84;;;15.89;40.67
66857;BME280;53766;50.280;19.160;2022-12-17T14:50:33;99140.69;;;15.88;40.82
66857;BME280;53766;50.280;19.160;2022-12-17T14:53:24;99138.84;;;15.88;40.53
66857;BME280;53766;50.280;19.160;2022-12-17T14:55:56;99147.47;;;15.90;40.92
66857;BME280;53766;50.280;19.160;2022-12-17T14:58:25;99149.13;;;15.91;40.85
66857;BME280;53766;50.280;19.160;2022-12-17T15:01:09;99164.38;;;15.89;41.00
66857;BME280;53766;50.280;19.160;2022-12-17T15:03:43;99168.06;;;15.88;40.84
66857;BME280;53766;50.280;19.160;2022-12-17T15:06:16;99165.06;;;15.91;40.77
66857;BME280;53766;50.280;19.160;2022-12-17T15:08:46;99167.03;;;15.89;41.03
66857;BME280;53766;50.280;19.160;2022-12-17T15:11:17;99162.41;;;15.91;40.83
66857;BME280;53766;50.280;19.160;2022-12-17T15:13:45;99168.88;;;15.89;40.93
66857;BME280;53766;50.280;19.160;2022-12-17T15:16:17;99172.34;;;15.89;40.56
66857;BME280;53766;50.280;19.160;2022-12-17T15:18:45;99178.69;;;15.88;40.93
66857;BME280;53766;50.280;19.160;2022-12-17T15:21:12;99181.19;;;15.90;41.04
66857;BME280;53766;50.280;19.160;2022-12-17T15:23:42;99181.34;;;15.88;40.89
66857;BME280;53766;50.280;19.160;2022-12-17T15:26:10;99188.97;;;15.91;41.09
66857;BME280;53766;50.280;19.160;2022-12-17T15:28:38;99192.13;;;15.95;41.18
66857;BME280;53766;50.280;19.160;2022-12-17T15:31:08;99213.69;;;16.00;41.41